METAR AND TAF INFORMATION
METAR FOR KAPS
ADDS - METARS form results

(0807 UTC 28 October 2021)
Data provider http://aviationweather.gov/metar/data/
 
METAR text: KAPS 280755Z AUTO 27006KT 10SM CLR 18/15 A2966 RMK AO2 T01820145
Conditions at: KAPS (RESERVE , LA, US) observed 0755 UTC 28 October 2021
Temperature: 18.2°C (65°F)
Dewpoint: 14.5°C (58°F) [RH = 79%]
Pressure (altimeter): 29.66 inches Hg (1004.5 mb)
Winds: from the W (270 degrees) at 7 MPH (6 knots; 3.1 m/s)
Visibility: 10 or more miles (16+ km)
Ceiling: at least 12,000 feet AGL
Clouds: sky clear below 12,000 feet AGL
Weather: automated observation with no human augmentation;
there may or may not be significant weather present at this time

METAR text: KAPS 280735Z AUTO 27007KT 10SM CLR 19/15 A2966 RMK AO2 T01850152
Conditions at: KAPS (RESERVE , LA, US) observed 0735 UTC 28 October 2021
Temperature: 18.5°C (65°F)
Dewpoint: 15.2°C (59°F) [RH = 81%]
Pressure (altimeter): 29.66 inches Hg (1004.5 mb)
Winds: from the W (270 degrees) at 8 MPH (7 knots; 3.6 m/s)
Visibility: 10 or more miles (16+ km)
Ceiling: at least 12,000 feet AGL
Clouds: sky clear below 12,000 feet AGL
Weather: automated observation with no human augmentation;
there may or may not be significant weather present at this time

METAR text: KAPS 280715Z AUTO 27007KT 10SM CLR 19/16 A2966 RMK AO2 T01850157
Conditions at: KAPS (RESERVE , LA, US) observed 0715 UTC 28 October 2021
Temperature: 18.5°C (65°F)
Dewpoint: 15.7°C (60°F) [RH = 84%]
Pressure (altimeter): 29.66 inches Hg (1004.5 mb)
Winds: from the W (270 degrees) at 8 MPH (7 knots; 3.6 m/s)
Visibility: 10 or more miles (16+ km)
Ceiling: at least 12,000 feet AGL
Clouds: sky clear below 12,000 feet AGL
Weather: automated observation with no human augmentation;
there may or may not be significant weather present at this time

 AIRPORT MAP

 RUNWAY INFORMATION

 AIRPORT FREQUENCIES

 AIRPORT NEAR NAVIGATION AIDS

-